createdAt,value
2022-08-05T00:01:19.971Z,20.40
2022-08-05T00:03:58.323Z,19.50
2022-08-05T00:06:38.324Z,20.35
2022-08-05T00:09:13.161Z,21.02
2022-08-05T00:12:02.323Z,19.88
2022-08-05T00:14:42.328Z,20.85
2022-08-05T00:17:36.315Z,19.30
2022-08-05T00:20:29.049Z,19.25
2022-08-05T00:23:12.872Z,21.95
2022-08-05T00:26:01.421Z,19.73
2022-08-05T00:28:35.448Z,19.10
2022-08-05T00:31:53.255Z,19.73
2022-08-05T00:34:53.307Z,19.67
2022-08-05T00:37:53.133Z,19.90
2022-08-05T00:40:40.367Z,19.27
2022-08-05T00:43:27.508Z,21.05
2022-08-05T00:46:42.456Z,19.05
2022-08-05T00:49:19.381Z,19.40
2022-08-05T00:52:06.389Z,18.35
2022-08-05T00:54:46.392Z,18.40
2022-08-05T00:57:55.435Z,20.50
2022-08-05T01:00:33.392Z,19.67
2022-08-05T01:03:30.952Z,18.88
2022-08-05T01:06:20.390Z,20.23
2022-08-05T01:09:06.287Z,20.88
2022-08-05T01:12:09.124Z,20.52
2022-08-05T01:14:56.903Z,22.02
2022-08-05T01:17:53.796Z,20.85
2022-08-05T01:20:46.483Z,19.83
2022-08-05T01:24:02.398Z,21.13
2022-08-05T01:27:24.325Z,21.08
2022-08-05T01:30:20.391Z,21.88
2022-08-05T01:33:25.157Z,21.05
2022-08-05T01:36:02.487Z,19.83
2022-08-05T01:38:50.905Z,20.48
2022-08-05T01:41:27.453Z,21.83
2022-08-05T01:44:15.428Z,22.70
2022-08-05T01:46:50.479Z,23.00
2022-08-05T01:50:00.446Z,22.17
2022-08-05T01:52:36.490Z,19.65
2022-08-05T01:55:27.363Z,20.17
2022-08-05T01:58:14.960Z,21.75
2022-08-05T02:01:05.367Z,20.90
2022-08-05T02:03:44.483Z,18.25
2022-08-05T02:06:37.720Z,20.20
2022-08-05T02:09:20.453Z,20.95
2022-08-05T02:12:14.391Z,19.80
2022-08-05T02:15:23.381Z,19.30
2022-08-05T02:18:32.446Z,20.23
2022-08-05T02:21:31.375Z,21.73
2022-08-05T02:24:23.548Z,20.80
2022-08-05T02:27:13.377Z,20.13
2022-08-05T02:30:00.060Z,21.42
2022-08-05T02:32:48.395Z,21.05
2022-08-05T02:35:28.216Z,20.10
2022-08-05T02:38:35.152Z,21.02
2022-08-05T02:41:36.423Z,21.58
2022-08-05T02:44:40.392Z,23.33
2022-08-05T02:47:17.500Z,22.40
2022-08-05T02:50:05.433Z,22.98
2022-08-05T02:52:41.632Z,22.73
2022-08-05T02:55:53.716Z,21.23
2022-08-05T02:58:30.566Z,21.75
2022-08-05T03:01:30.422Z,21.67
2022-08-05T03:04:23.082Z,21.35
2022-08-05T03:06:59.408Z,20.90
2022-08-05T03:09:51.714Z,20.67
2022-08-05T03:12:42.501Z,19.88
2022-08-05T03:15:29.424Z,20.70
2022-08-05T03:18:02.488Z,21.48
2022-08-05T03:20:50.427Z,19.42
2022-08-05T03:23:24.041Z,19.45
2022-08-05T03:26:31.390Z,19.05
2022-08-05T03:29:12.322Z,18.70
2022-08-05T03:32:04.417Z,19.98
2022-08-05T03:34:42.498Z,18.63
2022-08-05T03:37:46.657Z,20.15
2022-08-05T03:40:33.463Z,19.50
2022-08-05T03:44:08.816Z,18.98
2022-08-05T03:46:23.425Z,18.40
2022-08-05T03:49:02.512Z,18.30
2022-08-05T03:52:38.454Z,18.85
2022-08-05T03:55:34.462Z,18.85
2022-08-05T03:58:02.436Z,20.25
2022-08-05T04:00:42.511Z,19.13
2022-08-05T04:03:29.458Z,18.77
2022-08-05T04:06:10.530Z,18.10
2022-08-05T04:08:51.447Z,18.70
2022-08-05T04:11:50.801Z,18.55
2022-08-05T04:14:29.962Z,17.23
2022-08-05T04:17:18.445Z,21.35
2022-08-05T04:19:54.525Z,19.90
2022-08-05T04:22:45.446Z,19.30
2022-08-05T04:25:18.504Z,20.65
2022-08-05T04:28:13.000Z,18.67
2022-08-05T04:30:46.511Z,18.17
2022-08-05T04:34:17.376Z,19.02
2022-08-05T04:36:46.444Z,22.30
2022-08-05T04:39:35.749Z,24.35
2022-08-05T04:42:16.459Z,21.00
2022-08-05T04:45:10.476Z,19.88
2022-08-05T04:48:26.994Z,20.13
2022-08-05T04:51:03.496Z,20.10
2022-08-05T04:53:58.477Z,20.05
2022-08-05T04:56:37.191Z,19.33
2022-08-05T04:59:36.636Z,19.02
2022-08-05T05:02:41.547Z,17.95
2022-08-05T05:05:32.449Z,15.68
2022-08-05T05:08:42.769Z,19.35
2022-08-05T05:11:24.458Z,17.92
2022-08-05T05:14:38.474Z,16.08
2022-08-05T05:17:56.264Z,17.50
2022-08-05T05:20:30.566Z,16.98
2022-08-05T05:23:19.504Z,16.13
2022-08-05T05:26:07.484Z,17.60
2022-08-05T05:29:02.404Z,17.73
2022-08-05T05:31:49.465Z,18.50
2022-08-05T05:34:26.776Z,19.55
2022-08-05T05:37:21.632Z,30.85
2022-08-05T05:40:36.487Z,20.23
2022-08-05T05:43:57.014Z,21.10
2022-08-05T05:46:18.833Z,17.52
2022-08-05T05:49:06.485Z,19.73
2022-08-05T05:51:55.608Z,19.75
2022-08-05T05:54:50.537Z,19.83
2022-08-05T05:57:24.671Z,17.70
2022-08-05T06:00:34.235Z,19.65
2022-08-05T06:03:39.695Z,21.35
2022-08-05T06:06:09.507Z,17.55
2022-08-05T06:08:50.499Z,18.48
2022-08-05T06:11:23.567Z,17.33
2022-08-05T06:14:10.505Z,19.35
2022-08-05T06:16:43.557Z,19.02
2022-08-05T06:19:35.070Z,18.02
2022-08-05T06:22:20.507Z,17.48
2022-08-05T06:25:24.346Z,18.40
2022-08-05T06:28:21.249Z,16.48
2022-08-05T06:31:18.131Z,16.75
2022-08-05T06:34:15.803Z,18.08
2022-08-05T06:37:13.536Z,18.42
2022-08-05T06:40:02.593Z,19.63
2022-08-05T06:42:35.584Z,20.63
2022-08-05T06:46:03.395Z,18.83
2022-08-05T06:48:53.041Z,19.58
2022-08-05T06:51:29.723Z,17.85
2022-08-05T06:54:05.851Z,17.55
2022-08-05T06:57:56.648Z,18.25
2022-08-05T06:59:48.507Z,19.60
2022-08-05T07:02:54.506Z,20.13
2022-08-05T07:05:37.181Z,19.42
2022-08-05T07:08:25.145Z,18.75
2022-08-05T07:10:58.636Z,18.30
2022-08-05T07:14:04.548Z,19.08
2022-08-05T07:18:00.457Z,19.70
2022-08-05T07:20:32.429Z,19.63
2022-08-05T07:22:58.658Z,23.88
2022-08-05T07:25:56.388Z,22.00
2022-08-05T07:28:36.611Z,21.63
2022-08-05T07:31:16.551Z,18.80
2022-08-05T07:33:56.620Z,19.55
2022-08-05T07:36:53.548Z,19.08
2022-08-05T07:40:04.529Z,20.67
2022-08-05T07:42:57.578Z,26.02
2022-08-05T07:45:57.428Z,18.20
2022-08-05T07:49:02.944Z,18.75
2022-08-05T07:51:41.065Z,21.05
2022-08-05T07:54:31.130Z,17.13
2022-08-05T07:57:56.229Z,18.85
2022-08-05T08:00:16.777Z,17.60
2022-08-05T08:03:14.229Z,18.58
2022-08-05T08:05:52.288Z,18.60
2022-08-05T08:08:39.594Z,17.98
2022-08-05T08:11:15.903Z,19.85
2022-08-05T08:14:02.577Z,19.70
2022-08-05T08:16:51.190Z,18.73
2022-08-05T08:20:22.989Z,25.55
2022-08-05T08:22:33.739Z,26.55
2022-08-05T08:25:27.164Z,20.88
2022-08-05T08:28:36.849Z,20.52
2022-08-05T08:31:34.577Z,18.17
2022-08-05T08:34:30.671Z,19.05
2022-08-05T08:37:06.661Z,19.02
2022-08-05T08:39:53.678Z,19.92
2022-08-05T08:42:46.857Z,19.13
2022-08-05T08:45:45.595Z,16.35
2022-08-05T08:49:02.462Z,19.70
2022-08-05T08:52:03.048Z,19.35
2022-08-05T08:54:54.609Z,19.25
2022-08-05T08:57:58.016Z,18.25
2022-08-05T09:00:31.741Z,22.50
2022-08-05T09:03:19.265Z,21.35
2022-08-05T09:06:07.539Z,21.30
2022-08-05T09:09:02.632Z,19.35
2022-08-05T09:12:01.243Z,18.65
2022-08-05T09:15:06.431Z,21.08
2022-08-05T09:17:49.631Z,17.95
2022-08-05T09:20:37.338Z,16.52
2022-08-05T09:23:21.676Z,17.67
2022-08-05T09:26:20.699Z,17.95
2022-08-05T09:29:08.831Z,17.58
2022-08-05T09:32:41.708Z,17.35
2022-08-05T09:34:55.121Z,16.85
2022-08-05T09:38:17.977Z,18.77
2022-08-05T09:41:03.656Z,20.00
2022-08-05T09:43:50.616Z,18.63
2022-08-05T09:46:51.751Z,18.45
2022-08-05T09:50:01.350Z,18.77
2022-08-05T09:52:44.880Z,18.55
2022-08-05T09:55:56.586Z,19.98
2022-08-05T09:58:34.637Z,19.10
2022-08-05T10:01:31.610Z,20.05
2022-08-05T10:04:29.235Z,20.90
2022-08-05T10:08:10.802Z,20.38
2022-08-05T10:10:32.408Z,20.48
2022-08-05T10:13:12.741Z,17.65
2022-08-05T10:15:57.666Z,19.38
2022-08-05T10:18:38.784Z,20.92
2022-08-05T10:21:20.663Z,19.67
2022-08-05T10:24:07.580Z,20.23
2022-08-05T10:26:52.901Z,20.70
2022-08-05T10:30:06.867Z,18.90
2022-08-05T10:33:01.341Z,20.05
2022-08-05T10:35:59.000Z,20.35
2022-08-05T10:38:57.708Z,20.23
2022-08-05T10:42:02.654Z,17.67
2022-08-05T10:44:39.200Z,16.85
2022-08-05T10:47:39.694Z,18.60
2022-08-05T10:50:36.648Z,20.48
2022-08-05T10:54:23.229Z,19.73
2022-08-05T10:57:05.704Z,17.55
2022-08-05T11:00:04.465Z,18.08
2022-08-05T11:02:50.741Z,21.42
2022-08-05T11:05:37.737Z,22.67
2022-08-05T11:08:37.415Z,20.50
2022-08-05T11:11:52.267Z,18.67
2022-08-05T11:15:11.722Z,21.38
2022-08-05T11:17:59.992Z,19.55
2022-08-05T11:20:41.811Z,17.80
2022-08-05T11:24:05.500Z,19.77
2022-08-05T11:27:51.059Z,19.35
2022-08-05T11:30:31.730Z,17.13
2022-08-05T11:33:46.026Z,15.45
2022-08-05T11:37:00.722Z,18.17
2022-08-05T11:40:08.731Z,16.92
2022-08-05T11:43:02.724Z,17.33
2022-08-05T11:46:16.108Z,17.77
2022-08-05T11:48:48.819Z,18.15
2022-08-05T11:51:43.623Z,20.67
2022-08-05T11:54:33.619Z,19.23
2022-08-05T11:57:25.635Z,18.23
2022-08-05T12:00:07.734Z,17.98
2022-08-05T12:03:01.798Z,17.80
2022-08-05T12:05:48.746Z,15.25
2022-08-05T12:08:21.803Z,17.15
2022-08-05T12:11:20.313Z,17.40
2022-08-05T12:14:11.808Z,17.02
2022-08-05T12:16:58.761Z,15.88
2022-08-05T12:20:25.628Z,14.75
2022-08-05T12:22:41.739Z,16.20
2022-08-05T12:25:28.513Z,16.92
2022-08-05T12:28:22.769Z,15.98
2022-08-05T12:31:33.649Z,16.05
2022-08-05T12:34:41.759Z,17.17
2022-08-05T12:37:38.748Z,15.43
2022-08-05T12:40:31.736Z,16.88
2022-08-05T12:43:11.763Z,14.25
2022-08-05T12:46:14.760Z,15.68
2022-08-05T12:49:25.505Z,17.95
2022-08-05T12:52:23.782Z,17.17
2022-08-05T12:55:07.840Z,18.90
2022-08-05T12:58:51.533Z,18.52
2022-08-05T13:02:01.735Z,19.05
2022-08-05T13:04:11.783Z,18.88
2022-08-05T13:06:58.770Z,19.63
2022-08-05T13:09:34.854Z,16.77
2022-08-05T13:12:22.772Z,22.58
2022-08-05T13:15:06.858Z,19.63
2022-08-05T13:18:04.790Z,19.48
2022-08-05T13:20:41.879Z,24.23
2022-08-05T13:23:29.795Z,20.05
2022-08-05T13:26:09.774Z,26.25
2022-08-05T13:28:59.316Z,25.95
2022-08-05T13:32:04.226Z,17.90
2022-08-05T13:34:53.817Z,17.88
2022-08-05T13:37:47.804Z,19.50
2022-08-05T13:40:52.016Z,19.35
2022-08-05T13:43:44.683Z,17.73
2022-08-05T13:47:01.909Z,17.80
2022-08-05T13:49:45.087Z,18.90
2022-08-05T13:52:37.980Z,18.60
2022-08-05T13:55:40.815Z,18.08
2022-08-05T13:58:23.271Z,18.45
2022-08-05T14:01:17.817Z,18.73
2022-08-05T14:04:10.854Z,18.27
2022-08-05T14:07:11.977Z,18.38
2022-08-05T14:09:57.852Z,18.45
2022-08-05T14:12:54.588Z,18.65
2022-08-05T14:16:07.798Z,17.95
2022-08-05T14:19:04.261Z,17.63
2022-08-05T14:22:09.178Z,18.35
2022-08-05T14:24:44.923Z,19.75
2022-08-05T14:27:33.843Z,19.02
2022-08-05T14:30:19.988Z,19.42
2022-08-05T14:33:22.577Z,21.08
2022-08-05T14:36:10.842Z,18.75
2022-08-05T14:38:43.921Z,16.58
2022-08-05T14:41:30.832Z,16.83
2022-08-05T14:44:09.707Z,17.45
2022-08-05T14:46:58.847Z,18.42
2022-08-05T14:49:56.362Z,18.40
2022-08-05T14:52:51.926Z,18.38
2022-08-05T14:55:39.495Z,18.30
2022-08-05T14:58:16.028Z,18.35
2022-08-05T15:01:02.871Z,18.60
2022-08-05T15:03:39.146Z,19.70
2022-08-05T15:06:27.927Z,18.63
2022-08-05T15:09:03.854Z,17.33
2022-08-05T15:11:53.483Z,17.75
2022-08-05T15:14:34.595Z,18.33
2022-08-05T15:17:46.684Z,19.95
2022-08-05T15:20:24.765Z,20.25
2022-08-05T15:23:13.862Z,19.98
2022-08-05T15:25:53.408Z,19.40
2022-08-05T15:28:43.870Z,19.02
2022-08-05T15:31:34.741Z,20.35
2022-08-05T15:34:33.243Z,19.08
2022-08-05T15:37:19.347Z,17.50
2022-08-05T15:41:01.188Z,18.45
2022-08-05T15:43:45.737Z,19.00
2022-08-05T15:46:33.882Z,19.80
2022-08-05T15:49:10.612Z,17.50
2022-08-05T15:52:13.397Z,18.55
2022-08-05T15:54:48.950Z,19.75
2022-08-05T15:57:37.905Z,17.83
2022-08-05T16:00:26.525Z,18.63
2022-08-05T16:03:21.925Z,19.30
2022-08-05T16:05:55.836Z,18.85
2022-08-05T16:08:45.876Z,17.58
2022-08-05T16:11:40.190Z,19.15
2022-08-05T16:14:22.932Z,19.25
2022-08-05T16:17:03.100Z,18.13
2022-08-05T16:20:03.172Z,17.90
2022-08-05T16:22:44.047Z,18.20
2022-08-05T16:25:23.933Z,18.10
2022-08-05T16:28:13.897Z,17.45
2022-08-05T16:30:56.931Z,18.48
2022-08-05T16:33:43.944Z,18.85
2022-08-05T16:36:20.531Z,20.67
2022-08-05T16:39:21.017Z,20.33
2022-08-05T16:42:18.493Z,19.98
2022-08-05T16:46:04.130Z,19.83
2022-08-05T16:48:05.917Z,17.83
2022-08-05T16:50:59.944Z,17.67
2022-08-05T16:54:03.885Z,16.63
2022-08-05T16:56:46.942Z,19.10
2022-08-05T17:00:00.378Z,18.40
2022-08-05T17:02:38.943Z,18.45
2022-08-05T17:05:32.952Z,19.25
2022-08-05T17:08:35.864Z,19.63
2022-08-05T17:11:25.275Z,19.23
2022-08-05T17:14:34.275Z,19.15
2022-08-05T17:17:15.136Z,21.35
2022-08-05T17:20:01.983Z,25.15
2022-08-05T17:22:35.061Z,22.05
2022-08-05T17:25:39.851Z,24.67
2022-08-05T17:28:20.954Z,23.50
2022-08-05T17:31:24.505Z,24.88
2022-08-05T17:34:29.990Z,24.60
2022-08-05T17:37:37.686Z,21.13
2022-08-05T17:40:16.078Z,20.35
2022-08-05T17:42:53.583Z,21.17
2022-08-05T17:45:40.966Z,22.15
2022-08-05T17:48:14.230Z,23.38
2022-08-05T17:51:09.207Z,24.05
2022-08-05T17:53:43.070Z,25.00
2022-08-05T17:56:38.007Z,24.08
2022-08-05T17:59:12.084Z,22.83
2022-08-05T18:01:59.029Z,24.15
2022-08-05T18:04:32.141Z,21.75
2022-08-05T18:07:22.953Z,22.42
2022-08-05T18:09:59.066Z,22.13
2022-08-05T18:12:47.043Z,23.33
2022-08-05T18:15:27.166Z,21.92
2022-08-05T18:18:14.213Z,21.98
2022-08-05T18:20:57.024Z,23.95
2022-08-05T18:23:53.761Z,22.55
2022-08-05T18:26:44.067Z,20.45
2022-08-05T18:29:17.127Z,22.20
2022-08-05T18:32:04.027Z,23.48
2022-08-05T18:34:40.643Z,22.42
2022-08-05T18:37:34.365Z,22.13
2022-08-05T18:41:56.780Z,22.33
2022-08-05T18:43:38.293Z,23.15
2022-08-05T18:46:26.067Z,23.33
2022-08-05T18:49:30.350Z,22.55
2022-08-05T18:52:36.293Z,23.33
2022-08-05T18:55:13.096Z,24.55
2022-08-05T18:58:03.501Z,22.95
2022-08-05T19:00:37.175Z,22.27
2022-08-05T19:03:52.743Z,22.27
2022-08-05T19:06:20.105Z,21.52
2022-08-05T19:09:09.078Z,20.58
2022-08-05T19:12:00.129Z,20.13
2022-08-05T19:15:00.953Z,20.30
2022-08-05T19:18:08.516Z,20.52
2022-08-05T19:20:52.084Z,22.83
2022-08-05T19:24:05.273Z,23.80
2022-08-05T19:26:55.461Z,24.00
2022-08-05T19:29:36.428Z,22.13
2022-08-05T19:32:27.752Z,22.67
2022-08-05T19:35:06.429Z,22.30
2022-08-05T19:38:06.363Z,21.80
2022-08-05T19:41:07.076Z,22.40
2022-08-05T19:44:06.019Z,22.00
2022-08-05T19:46:53.075Z,22.98
2022-08-05T19:49:40.054Z,21.70
2022-08-05T19:52:30.718Z,20.95
2022-08-05T19:56:14.353Z,22.08
2022-08-05T19:58:29.447Z,20.60
2022-08-05T20:01:10.132Z,20.75
2022-08-05T20:03:50.221Z,19.65
2022-08-05T20:06:34.906Z,20.95
2022-08-05T20:09:26.211Z,21.13
2022-08-05T20:12:09.073Z,21.77
2022-08-05T20:14:52.069Z,21.40
2022-08-05T20:17:33.718Z,20.75
2022-08-05T20:20:17.170Z,21.80
2022-08-05T20:22:57.075Z,22.25
2022-08-05T20:25:40.231Z,20.42
2022-08-05T20:28:21.080Z,21.27
2022-08-05T20:31:03.078Z,21.90
2022-08-05T20:33:42.508Z,21.60
2022-08-05T20:36:31.077Z,21.55
2022-08-05T20:39:06.322Z,21.35
2022-08-05T20:42:01.081Z,24.17
2022-08-05T20:44:37.794Z,22.83
2022-08-05T20:47:31.787Z,21.85
2022-08-05T20:50:07.438Z,22.00
2022-08-05T20:52:55.090Z,22.65
2022-08-05T20:55:56.247Z,22.45
2022-08-05T20:58:36.099Z,21.92
2022-08-05T21:01:18.194Z,21.05
2022-08-05T21:04:20.095Z,22.27
2022-08-05T21:07:15.092Z,21.60
2022-08-05T21:10:09.104Z,21.50
2022-08-05T21:13:11.077Z,21.85
2022-08-05T21:15:56.122Z,21.45
2022-08-05T21:18:50.129Z,19.80
2022-08-05T21:21:44.317Z,22.85
2022-08-05T21:24:24.205Z,23.67
2022-08-05T21:27:11.106Z,21.85
2022-08-05T21:29:48.433Z,23.40
2022-08-05T21:32:32.363Z,21.77
2022-08-05T21:35:18.371Z,20.88
2022-08-05T21:38:13.548Z,20.98
2022-08-05T21:41:07.088Z,21.60
2022-08-05T21:44:03.623Z,21.02
2022-08-05T21:46:46.138Z,21.50
2022-08-05T21:50:00.348Z,21.52
2022-08-05T21:52:58.791Z,21.30
2022-08-05T21:56:04.608Z,21.45
2022-08-05T21:58:58.005Z,22.40
2022-08-05T22:01:35.422Z,21.73
2022-08-05T22:04:25.476Z,22.10
2022-08-05T22:07:02.185Z,22.33
2022-08-05T22:09:49.160Z,22.40
2022-08-05T22:12:26.443Z,22.63
2022-08-05T22:16:02.755Z,21.92
2022-08-05T22:18:13.200Z,23.50
2022-08-05T22:21:03.942Z,23.20
2022-08-05T22:24:01.921Z,21.70
2022-08-05T22:27:10.958Z,23.40
2022-08-05T22:29:57.166Z,23.50
2022-08-05T22:32:52.142Z,21.38
2022-08-05T22:35:48.845Z,22.10
2022-08-05T22:38:23.206Z,25.05
2022-08-05T22:41:12.158Z,25.25
2022-08-05T22:43:48.248Z,22.65
2022-08-05T22:46:40.114Z,23.70
2022-08-05T22:50:18.233Z,24.40
2022-08-05T22:52:30.637Z,23.13
2022-08-05T22:55:19.399Z,25.27
2022-08-05T22:58:17.204Z,24.83
2022-08-05T23:01:22.226Z,22.63
2022-08-05T23:04:22.162Z,25.30
2022-08-05T23:07:02.173Z,26.05
2022-08-05T23:09:57.404Z,24.20
2022-08-05T23:12:46.168Z,23.02
2022-08-05T23:15:19.384Z,24.05
2022-08-05T23:18:11.725Z,23.25
2022-08-05T23:20:56.193Z,22.98
2022-08-05T23:23:52.163Z,24.27
2022-08-05T23:26:46.184Z,25.10
2022-08-05T23:29:41.167Z,26.05
2022-08-05T23:32:28.576Z,24.95
2022-08-05T23:35:09.175Z,21.80
2022-08-05T23:37:56.153Z,25.02
2022-08-05T23:40:29.295Z,23.40
2022-08-05T23:43:25.604Z,20.88
2022-08-05T23:46:21.251Z,22.70
2022-08-05T23:49:16.182Z,22.80
2022-08-05T23:52:10.106Z,23.25
2022-08-05T23:54:57.177Z,24.75
2022-08-05T23:57:31.264Z,25.42
